createdAt,value
2023-03-26T00:03:38.928Z,8.4
2023-03-26T00:07:45.594Z,8.4
2023-03-26T00:09:47.282Z,8.3
2023-03-26T00:11:48.965Z,8.4
2023-03-26T00:13:50.700Z,8.4
2023-03-26T00:15:52.651Z,8.3
2023-03-26T00:26:04.586Z,8.3
2023-03-26T00:28:06.298Z,8.4
2023-03-26T00:30:08.043Z,8.4
2023-03-26T00:32:09.753Z,8.4
2023-03-26T00:34:14.636Z,8.4
2023-03-26T00:36:16.430Z,8.4
2023-03-26T00:38:18.057Z,8.4
2023-03-26T00:39:20.535Z,8.4
2023-03-26T00:49:32.297Z,8.3
2023-03-26T00:51:34.113Z,8.3
2023-03-26T00:53:35.706Z,8.4
2023-03-26T00:55:37.419Z,8.3
2023-03-26T00:57:39.143Z,8.4
2023-03-26T00:59:40.800Z,8.4
2023-03-26T01:01:45.843Z,8.4
2023-03-26T01:05:49.183Z,8.2
2023-03-26T01:07:50.894Z,8.3
2023-03-26T01:09:52.614Z,8.3
2023-03-26T01:11:54.322Z,8.3
2023-03-26T01:13:56.036Z,8.3
2023-03-26T01:16:01.046Z,8.3
2023-03-26T01:20:04.410Z,8.3
2023-03-26T01:22:06.257Z,8.3
2023-03-26T01:24:07.857Z,8.3
2023-03-26T01:26:09.539Z,8.3
2023-03-26T01:28:11.240Z,8.4
2023-03-26T01:30:16.197Z,8.3
2023-03-26T01:32:18.164Z,8.3
2023-03-26T01:36:48.222Z,8.2
2023-03-26T01:38:49.948Z,8.3
2023-03-26T01:40:51.662Z,8.3
2023-03-26T01:42:56.606Z,8.2
2023-03-26T01:44:58.307Z,8.3
2023-03-26T01:49:01.730Z,8.3
2023-03-26T01:53:05.133Z,8.3
2023-03-26T01:55:06.845Z,8.4
2023-03-26T01:57:11.835Z,8.1
2023-03-26T02:09:22.010Z,8.3
2023-03-26T02:11:34.803Z,8.3
2023-03-26T02:13:28.665Z,8.2
2023-03-26T02:15:30.370Z,8.3
2023-03-26T02:17:32.082Z,8.2
2023-03-26T02:19:33.761Z,8.3
2023-03-26T02:21:35.477Z,8.3
2023-03-26T02:23:37.172Z,8.3
2023-03-26T02:25:42.099Z,8.2
2023-03-26T02:29:45.492Z,8.3
2023-03-26T02:30:47.985Z,8.2
2023-03-26T02:55:14.833Z,8.4
2023-03-26T02:57:16.574Z,8.3
2023-03-26T02:59:18.244Z,8.3
2023-03-26T03:05:23.335Z,8.3
2023-03-26T03:07:28.287Z,8.4
2023-03-26T03:09:29.994Z,8.3
2023-03-26T03:11:31.700Z,8.4
2023-03-26T03:13:33.390Z,8.4
2023-03-26T03:15:35.162Z,8.6
2023-03-26T03:19:38.504Z,8.5
2023-03-26T03:21:43.430Z,8.6
2023-03-26T03:23:45.146Z,8.5
2023-03-26T03:25:46.847Z,8.5
2023-03-26T03:26:49.314Z,8.6
2023-03-26T03:28:51.017Z,8.5
2023-03-26T03:37:01.093Z,8.5
2023-03-26T03:41:04.508Z,8.6
2023-03-26T03:53:17.971Z,8.6
2023-03-26T03:55:19.847Z,8.6
2023-03-26T03:59:23.277Z,8.6
2023-03-26T04:01:24.988Z,8.7
2023-03-26T04:03:33.618Z,8.7
2023-03-26T04:09:35.088Z,8.7
2023-03-26T04:11:36.771Z,8.7
2023-03-26T04:22:51.073Z,8.6
2023-03-26T04:24:52.808Z,8.4
2023-03-26T04:26:56.062Z,8.4
2023-03-26T04:28:57.718Z,8.5
2023-03-26T04:31:02.829Z,8.5
2023-03-26T04:33:04.455Z,8.5
2023-03-26T04:35:06.091Z,8.6
2023-03-26T04:37:07.822Z,8.6
2023-03-26T04:41:11.253Z,8.6
2023-03-26T04:59:33.217Z,8.7
2023-03-26T05:03:36.632Z,8.7
2023-03-26T05:05:38.360Z,8.6
2023-03-26T05:07:40.064Z,8.7
2023-03-26T05:09:41.809Z,8.6
2023-03-26T05:13:48.445Z,8.6
2023-03-26T05:15:50.159Z,8.5
2023-03-26T05:17:52.000Z,8.5
2023-03-26T05:48:50.887Z,8.7
2023-03-26T06:01:04.469Z,8.6
2023-03-26T06:03:06.341Z,8.7
2023-03-26T06:07:09.614Z,8.6
2023-03-26T06:09:14.538Z,8.6
2023-03-26T06:11:16.259Z,8.6
2023-03-26T06:13:17.985Z,8.7
2023-03-26T06:14:20.471Z,8.6
2023-03-26T06:16:27.224Z,8.7
2023-03-26T06:18:23.956Z,8.8
2023-03-26T06:20:25.586Z,8.6
2023-03-26T06:22:30.544Z,8.6
2023-03-26T06:24:32.260Z,8.7
2023-03-26T06:28:35.693Z,8.6
2023-03-26T06:36:45.774Z,8.7
2023-03-26T06:46:54.363Z,8.8
2023-03-26T06:48:56.091Z,8.8
2023-03-26T06:53:02.720Z,8.9
2023-03-26T06:55:04.437Z,9
2023-03-26T06:57:06.151Z,8.9
2023-03-26T06:59:07.859Z,8.9
2023-03-26T07:01:09.609Z,8.9
2023-03-26T07:03:11.437Z,8.9
2023-03-26T07:05:16.235Z,8.9
2023-03-26T07:07:17.948Z,8.9
2023-03-26T07:09:19.660Z,9
2023-03-26T07:14:25.553Z,9
2023-03-26T07:16:27.497Z,9.1
2023-03-26T07:18:32.255Z,9.1
2023-03-26T07:22:35.681Z,9.2
2023-03-26T07:24:37.379Z,9
2023-03-26T07:26:39.139Z,9
2023-03-26T07:28:40.832Z,9
2023-03-26T07:30:42.468Z,9.2
2023-03-26T07:32:47.513Z,9.2
2023-03-26T07:34:49.170Z,9.2
2023-03-26T07:36:50.898Z,9.2
2023-03-26T07:38:52.620Z,9.3
2023-03-26T07:40:54.566Z,9.2
2023-03-26T07:42:56.068Z,9.1
2023-03-26T07:44:57.786Z,9
2023-03-26T07:47:02.765Z,9
2023-03-26T07:49:04.502Z,9
2023-03-26T07:51:06.203Z,8.9
2023-03-26T07:53:07.921Z,9
2023-03-26T07:55:09.621Z,8.9
2023-03-26T07:57:11.439Z,9
2023-03-26T07:59:13.074Z,8.9
2023-03-26T08:01:18.030Z,8.9
2023-03-26T08:03:19.827Z,8.9
2023-03-26T08:05:21.462Z,8.9
2023-03-26T08:12:29.123Z,9
2023-03-26T08:16:35.799Z,8.9
2023-03-26T08:18:37.514Z,9
2023-03-26T08:22:40.993Z,8.9
2023-03-26T08:24:42.709Z,8.9
2023-03-26T08:26:44.401Z,8.9
2023-03-26T08:28:50.104Z,9
2023-03-26T08:30:51.838Z,8.9
2023-03-26T08:32:53.524Z,9
2023-03-26T08:34:55.257Z,9
2023-03-26T08:36:57.000Z,8.9
2023-03-26T08:38:58.709Z,8.8
2023-03-26T08:41:00.425Z,8.9
2023-03-26T08:43:05.356Z,8.8
2023-03-26T08:45:07.090Z,8.8
2023-03-26T08:47:08.811Z,9
2023-03-26T08:49:10.544Z,8.9
2023-03-26T08:51:12.257Z,9
2023-03-26T08:55:15.698Z,9
2023-03-26T08:57:20.649Z,9.1
2023-03-26T08:59:22.383Z,9
2023-03-26T09:01:24.159Z,9.3
2023-03-26T09:03:52.790Z,9.2
2023-03-26T09:05:54.473Z,9.4
2023-03-26T09:07:56.180Z,9.5
2023-03-26T09:12:02.846Z,9.5
2023-03-26T09:16:06.364Z,9.5
2023-03-26T09:18:08.055Z,9.5
2023-03-26T09:20:09.750Z,9.5
2023-03-26T09:22:11.472Z,9.5
2023-03-26T09:24:16.463Z,9.6
2023-03-26T09:26:18.171Z,9.6
2023-03-26T09:28:19.937Z,9.7
2023-03-26T09:30:21.722Z,9.5
2023-03-26T09:32:23.507Z,9.6
2023-03-26T09:36:26.852Z,9.7
2023-03-26T09:38:31.813Z,9.6
2023-03-26T09:40:33.600Z,9.7
2023-03-26T09:48:40.538Z,9.5
2023-03-26T09:52:47.886Z,9.5
2023-03-26T09:54:48.959Z,9.4
2023-03-26T09:56:50.728Z,9.5
2023-03-26T10:03:58.370Z,9.5
2023-03-26T10:08:05.830Z,9.6
2023-03-26T10:20:20.244Z,9.3
2023-03-26T10:22:21.972Z,9.3
2023-03-26T10:24:23.703Z,9.2
2023-03-26T10:28:27.157Z,9.1
2023-03-26T10:30:28.937Z,9
2023-03-26T10:32:30.628Z,9
2023-03-26T10:34:35.570Z,9.1
2023-03-26T10:36:37.292Z,9
2023-03-26T10:38:39.027Z,9
2023-03-26T10:48:50.852Z,9
2023-03-26T10:53:56.787Z,9.1
2023-03-26T10:55:58.676Z,9
2023-03-26T11:00:01.955Z,8.9
2023-03-26T11:02:06.869Z,9
2023-03-26T11:04:08.591Z,9
2023-03-26T11:06:10.293Z,9
2023-03-26T11:12:26.416Z,9.2
2023-03-26T11:14:27.933Z,9.2
2023-03-26T11:16:22.090Z,9.3
2023-03-26T11:18:23.911Z,9.4
2023-03-26T11:20:25.552Z,9.3
2023-03-26T11:22:27.237Z,9.4
2023-03-26T11:24:28.999Z,9.1
2023-03-26T11:26:30.673Z,9.2
2023-03-26T11:28:32.411Z,9.1
2023-03-26T11:30:37.350Z,9.2
2023-03-26T11:32:39.103Z,9.2
2023-03-26T11:34:40.798Z,9.2
2023-03-26T11:38:44.226Z,9.1
2023-03-26T11:42:47.676Z,9.1
2023-03-26T11:49:58.529Z,9.1
2023-03-26T11:52:00.294Z,9
2023-03-26T11:56:03.757Z,9.1
2023-03-26T11:58:09.757Z,8.9
2023-03-26T12:02:12.203Z,8.9
2023-03-26T12:04:13.831Z,9
2023-03-26T12:06:15.505Z,9
2023-03-26T12:10:19.533Z,8.9
2023-03-26T12:12:23.922Z,9
2023-03-26T12:16:27.605Z,9.2
2023-03-26T12:20:30.759Z,9.4
2023-03-26T12:24:34.196Z,9.6
2023-03-26T12:32:46.725Z,9.6
2023-03-26T12:34:46.032Z,9.7
2023-03-26T12:47:57.603Z,10.1
2023-03-26T12:53:34.905Z,9.8
2023-03-26T12:57:38.425Z,10
2023-03-26T13:01:41.950Z,10.2
2023-03-26T13:03:43.625Z,10.4
2023-03-26T13:05:45.352Z,10.3
2023-03-26T13:11:53.812Z,10.6
2023-03-26T13:13:55.528Z,10.5
2023-03-26T13:15:57.285Z,10.5
2023-03-26T13:17:59.077Z,10.5
2023-03-26T13:20:00.806Z,10.6
2023-03-26T13:22:05.760Z,10.5
2023-03-26T13:26:09.238Z,10.5
2023-03-26T13:28:10.993Z,10.4
2023-03-26T13:32:14.526Z,10.6
2023-03-26T13:36:23.707Z,10.7
2023-03-26T13:38:23.033Z,10.9
2023-03-26T13:40:24.749Z,11
2023-03-26T13:45:30.719Z,10.8
2023-03-26T13:47:32.493Z,11
2023-03-26T13:49:37.574Z,10.9
2023-03-26T13:51:39.236Z,10.9
2023-03-26T13:53:41.012Z,11
2023-03-26T13:55:42.740Z,10.9
2023-03-26T13:59:46.245Z,11
2023-03-26T14:03:53.047Z,11.2
2023-03-26T14:26:15.598Z,10.4
2023-03-26T14:37:30.135Z,10.1
2023-03-26T14:39:31.889Z,10
2023-03-26T14:41:33.663Z,10
2023-03-26T14:45:40.392Z,9.8
2023-03-26T14:47:42.350Z,9.7
2023-03-26T14:49:43.918Z,9.8
2023-03-26T14:53:47.421Z,9.9
2023-03-26T14:55:49.209Z,9.8
2023-03-26T14:59:55.929Z,9.9
2023-03-26T15:01:57.705Z,9.9
2023-03-26T15:03:59.418Z,9.8
2023-03-26T15:06:01.180Z,9.7
2023-03-26T15:08:03.294Z,9.7
2023-03-26T15:10:05.811Z,9.6
2023-03-26T15:12:12.758Z,9.6
2023-03-26T15:14:11.408Z,9.5
2023-03-26T15:16:13.162Z,9.7
2023-03-26T15:18:14.868Z,9.6
2023-03-26T15:20:16.610Z,9.6
2023-03-26T15:22:18.360Z,9.5
2023-03-26T15:24:20.100Z,9.6
2023-03-26T15:26:21.866Z,9.6
2023-03-26T15:28:26.837Z,9.5
2023-03-26T15:30:28.574Z,9.5
2023-03-26T15:32:30.359Z,9.5
2023-03-26T15:33:32.784Z,9.6
2023-03-26T15:58:00.105Z,9
2023-03-26T16:02:03.525Z,9
2023-03-26T16:06:06.983Z,9.1
2023-03-26T16:08:08.705Z,9
2023-03-26T16:10:15.213Z,8.9
2023-03-26T16:12:16.909Z,8.9
2023-03-26T16:14:18.656Z,8.9
2023-03-26T16:18:22.127Z,9
2023-03-26T16:26:32.259Z,8.8
2023-03-26T16:28:34.018Z,8.8
2023-03-26T16:37:10.996Z,8.9
2023-03-26T16:39:12.720Z,8.9
2023-03-26T16:41:14.442Z,8.8
2023-03-26T16:55:29.720Z,8.4
2023-03-26T16:57:31.434Z,8.4
2023-03-26T17:05:41.507Z,8.4
2023-03-26T17:07:43.881Z,8.3
2023-03-26T17:09:44.942Z,8.3
2023-03-26T17:11:46.632Z,8.4
2023-03-26T17:13:48.342Z,8.2
2023-03-26T17:15:50.054Z,8.3
2023-03-26T17:19:56.694Z,8.1
2023-03-26T17:21:58.417Z,8.2
2023-03-26T17:24:00.147Z,8.1
2023-03-26T17:25:02.600Z,8.2
2023-03-26T17:27:04.287Z,8.1
2023-03-26T17:29:05.978Z,8
2023-03-26T17:31:07.723Z,8
2023-03-26T17:37:16.064Z,7.9
2023-03-26T17:39:17.749Z,7.8
2023-03-26T17:41:19.516Z,8
2023-03-26T17:43:21.166Z,7.9
2023-03-26T17:45:22.875Z,7.9
2023-03-26T17:47:27.919Z,7.8
2023-03-26T17:49:29.496Z,7.7
2023-03-26T17:53:32.922Z,7.8
2023-03-26T17:57:36.342Z,7.7
2023-03-26T17:59:39.311Z,7.6
2023-03-26T18:01:43.118Z,7.6
2023-03-26T18:03:44.639Z,7.6
2023-03-26T18:05:46.347Z,7.6
2023-03-26T18:07:48.040Z,7.6
2023-03-26T18:09:49.709Z,7.5
2023-03-26T18:11:52.153Z,7.5
2023-03-26T18:13:53.127Z,7.5
2023-03-26T18:15:58.222Z,7.4
2023-03-26T18:17:59.737Z,7.5
2023-03-26T18:20:01.393Z,7.4
2023-03-26T18:21:03.880Z,7.5
2023-03-26T18:25:07.241Z,7.5
2023-03-26T18:27:10.051Z,7.4
2023-03-26T18:31:15.521Z,7.1
2023-03-26T19:01:47.472Z,6.6
2023-03-26T19:03:48.964Z,6.5
2023-03-26T19:05:50.539Z,6.5
2023-03-26T19:19:06.217Z,6
2023-03-26T19:21:07.861Z,6.3
2023-03-26T19:23:09.565Z,6.1
2023-03-26T19:25:14.431Z,6.1
2023-03-26T19:27:16.082Z,6
2023-03-26T19:29:17.709Z,6.1
2023-03-26T19:31:19.555Z,6
2023-03-26T19:33:21.080Z,6.1
2023-03-26T19:37:24.336Z,6
2023-03-26T19:39:37.263Z,6
2023-03-26T19:41:30.887Z,5.9
2023-03-26T19:43:32.520Z,5.9
2023-03-26T19:45:34.184Z,5.8
2023-03-26T19:47:48.466Z,5.7
2023-03-26T19:49:37.469Z,5.8
2023-03-26T19:51:39.100Z,5.7
2023-03-26T19:53:44.027Z,5.7
2023-03-26T20:14:30.543Z,5.3
2023-03-26T20:16:32.262Z,5.3
2023-03-26T20:18:33.838Z,5.3
2023-03-26T20:20:38.654Z,5.3
2023-03-26T20:28:48.344Z,5.4
2023-03-26T20:30:46.742Z,5.4
2023-03-26T20:32:48.897Z,5.5
2023-03-26T20:34:53.245Z,5.5
2023-03-26T20:38:56.514Z,5.4
2023-03-26T20:40:58.318Z,5.5
2023-03-26T20:42:59.740Z,5.5
2023-03-26T20:45:01.389Z,5.4
2023-03-26T20:49:07.871Z,5.4
2023-03-26T20:51:09.479Z,5.5
2023-03-26T20:53:11.137Z,5.5
2023-03-26T20:55:12.735Z,5.5
2023-03-26T20:57:14.400Z,5.5
2023-03-26T20:59:16.052Z,5.5
2023-03-26T21:01:17.671Z,5.4
2023-03-26T21:03:22.532Z,5.3
2023-03-26T21:05:24.072Z,5.5
2023-03-26T21:07:25.715Z,5.5
2023-03-26T21:08:28.165Z,5.3
2023-03-26T21:18:39.470Z,5.3
2023-03-26T21:20:41.107Z,5.3
2023-03-26T21:24:44.325Z,5.2
2023-03-26T21:30:52.409Z,5.2
2023-03-26T21:32:54.065Z,5.2
2023-03-26T21:34:59.290Z,5
2023-03-26T21:45:06.881Z,4.8
2023-03-26T21:47:09.822Z,4.9
2023-03-26T21:49:10.114Z,4.8
2023-03-26T21:51:11.693Z,4.8
2023-03-26T21:53:13.291Z,4.7
2023-03-26T21:55:14.889Z,4.8
2023-03-26T21:57:16.584Z,4.7
2023-03-26T21:59:22.881Z,4.7
2023-03-26T22:01:24.500Z,4.7
2023-03-26T22:03:26.054Z,4.6
2023-03-26T22:04:28.463Z,4.7
2023-03-26T22:12:38.866Z,4.4
2023-03-26T22:14:40.482Z,4.5
2023-03-26T22:16:42.065Z,4.4
2023-03-26T22:18:43.670Z,4.4
2023-03-26T22:24:48.411Z,4.3
2023-03-26T22:28:54.821Z,4.3
2023-03-26T22:32:58.019Z,4.3
2023-03-26T22:34:59.585Z,4.2
2023-03-26T22:37:01.172Z,4.2
2023-03-26T22:39:02.768Z,4.2
2023-03-26T22:45:10.768Z,4.2
2023-03-26T23:00:27.919Z,4.4
2023-03-26T23:02:29.507Z,4.4
2023-03-26T23:04:32.189Z,4.4
2023-03-26T23:06:32.663Z,4.3
2023-03-26T23:08:37.477Z,4.2
2023-03-26T23:10:39.128Z,4.3
2023-03-26T23:12:40.653Z,4.3
2023-03-26T23:14:42.235Z,4.2
2023-03-26T23:16:43.822Z,4.3
2023-03-26T23:18:45.446Z,4.2
2023-03-26T23:20:47.012Z,4.1
2023-03-26T23:22:51.842Z,4.2
2023-03-26T23:24:53.398Z,4.1
2023-03-26T23:26:54.975Z,4.1
2023-03-26T23:28:56.532Z,4.1
2023-03-26T23:30:58.340Z,4.1
2023-03-26T23:35:01.279Z,4.1
2023-03-26T23:55:23.456Z,3.9
